sensor_id;sensor_type;location;lat;lon;timestamp;P1;durP1;ratioP1;P2;durP2;ratioP2
74528;SDS011;63009;52.584;5.932;2023-03-21T00:02:09;19.60;;;9.90;;
74528;SDS011;63009;52.584;5.932;2023-03-21T00:04:34;23.83;;;10.45;;
74528;SDS011;63009;52.584;5.932;2023-03-21T00:06:59;21.40;;;10.40;;
74528;SDS011;63009;52.584;5.932;2023-03-21T00:09:25;21.27;;;10.47;;
74528;SDS011;63009;52.584;5.932;2023-03-21T00:11:51;22.90;;;10.90;;
74528;SDS011;63009;52.584;5.932;2023-03-21T00:14:16;21.98;;;11.57;;
74528;SDS011;63009;52.584;5.932;2023-03-21T00:16:45;22.05;;;10.88;;
74528;SDS011;63009;52.584;5.932;2023-03-21T00:19:14;23.55;;;12.18;;
74528;SDS011;63009;52.584;5.932;2023-03-21T00:21:40;21.05;;;10.57;;
74528;SDS011;63009;52.584;5.932;2023-03-21T00:24:07;23.15;;;11.40;;
74528;SDS011;63009;52.584;5.932;2023-03-21T00:26:32;20.20;;;10.13;;
74528;SDS011;63009;52.584;5.932;2023-03-21T00:28:58;22.60;;;10.63;;
74528;SDS011;63009;52.584;5.932;2023-03-21T00:31:23;22.13;;;11.38;;
74528;SDS011;63009;52.584;5.932;2023-03-21T00:33:49;23.88;;;11.50;;
74528;SDS011;63009;52.584;5.932;2023-03-21T00:36:14;24.02;;;12.60;;
74528;SDS011;63009;52.584;5.932;2023-03-21T00:38:40;22.58;;;11.02;;
74528;SDS011;63009;52.584;5.932;2023-03-21T00:41:06;22.25;;;10.70;;
74528;SDS011;63009;52.584;5.932;2023-03-21T00:43:33;25.98;;;11.43;;
74528;SDS011;63009;52.584;5.932;2023-03-21T00:45:59;23.45;;;11.32;;
74528;SDS011;63009;52.584;5.932;2023-03-21T00:48:34;24.75;;;12.32;;
74528;SDS011;63009;52.584;5.932;2023-03-21T00:51:00;22.77;;;11.52;;
74528;SDS011;63009;52.584;5.932;2023-03-21T00:53:26;21.77;;;11.43;;
74528;SDS011;63009;52.584;5.932;2023-03-21T00:55:51;23.20;;;11.60;;
74528;SDS011;63009;52.584;5.932;2023-03-21T00:58:17;24.00;;;11.63;;
74528;SDS011;63009;52.584;5.932;2023-03-21T01:00:42;23.52;;;11.40;;
74528;SDS011;63009;52.584;5.932;2023-03-21T01:03:09;21.60;;;11.32;;
74528;SDS011;63009;52.584;5.932;2023-03-21T01:05:36;22.92;;;11.85;;
74528;SDS011;63009;52.584;5.932;2023-03-21T01:08:23;23.10;;;11.63;;
74528;SDS011;63009;52.584;5.932;2023-03-21T01:10:50;23.00;;;12.05;;
74528;SDS011;63009;52.584;5.932;2023-03-21T01:13:17;24.48;;;12.15;;
74528;SDS011;63009;52.584;5.932;2023-03-21T01:15:45;26.67;;;12.57;;
74528;SDS011;63009;52.584;5.932;2023-03-21T01:18:17;25.52;;;12.63;;
74528;SDS011;63009;52.584;5.932;2023-03-21T01:20:44;26.92;;;12.48;;
74528;SDS011;63009;52.584;5.932;2023-03-21T01:23:11;26.08;;;12.73;;
74528;SDS011;63009;52.584;5.932;2023-03-21T01:25:37;23.73;;;12.70;;
74528;SDS011;63009;52.584;5.932;2023-03-21T01:28:02;25.07;;;11.97;;
74528;SDS011;63009;52.584;5.932;2023-03-21T01:30:28;21.42;;;10.75;;
74528;SDS011;63009;52.584;5.932;2023-03-21T01:32:54;23.50;;;10.25;;
74528;SDS011;63009;52.584;5.932;2023-03-21T01:35:19;18.93;;;9.87;;
74528;SDS011;63009;52.584;5.932;2023-03-21T01:37:44;19.87;;;8.83;;
74528;SDS011;63009;52.584;5.932;2023-03-21T01:40:10;18.07;;;8.80;;
74528;SDS011;63009;52.584;5.932;2023-03-21T01:42:42;18.30;;;9.45;;
74528;SDS011;63009;52.584;5.932;2023-03-21T01:46:07;16.73;;;8.17;;
74528;SDS011;63009;52.584;5.932;2023-03-21T01:48:11;19.23;;;8.93;;
74528;SDS011;63009;52.584;5.932;2023-03-21T01:50:38;15.18;;;7.53;;
74528;SDS011;63009;52.584;5.932;2023-03-21T01:53:06;17.70;;;8.65;;
74528;SDS011;63009;52.584;5.932;2023-03-21T01:55:31;17.87;;;7.80;;
74528;SDS011;63009;52.584;5.932;2023-03-21T01:57:57;17.55;;;7.63;;
74528;SDS011;63009;52.584;5.932;2023-03-21T02:00:27;15.30;;;7.07;;
74528;SDS011;63009;52.584;5.932;2023-03-21T02:02:53;16.23;;;7.45;;
74528;SDS011;63009;52.584;5.932;2023-03-21T02:05:35;16.13;;;7.43;;
74528;SDS011;63009;52.584;5.932;2023-03-21T02:08:01;15.48;;;6.63;;
74528;SDS011;63009;52.584;5.932;2023-03-21T02:10:26;17.35;;;7.68;;
74528;SDS011;63009;52.584;5.932;2023-03-21T02:12:54;17.15;;;7.70;;
74528;SDS011;63009;52.584;5.932;2023-03-21T02:15:22;15.60;;;7.55;;
74528;SDS011;63009;52.584;5.932;2023-03-21T02:17:57;16.33;;;7.93;;
74528;SDS011;63009;52.584;5.932;2023-03-21T02:20:53;16.35;;;7.75;;
74528;SDS011;63009;52.584;5.932;2023-03-21T02:23:28;16.45;;;8.45;;
74528;SDS011;63009;52.584;5.932;2023-03-21T02:26:11;15.15;;;7.82;;
74528;SDS011;63009;52.584;5.932;2023-03-21T02:28:43;16.95;;;8.05;;
74528;SDS011;63009;52.584;5.932;2023-03-21T02:31:22;18.17;;;9.60;;
74528;SDS011;63009;52.584;5.932;2023-03-21T02:34:08;16.90;;;8.70;;
74528;SDS011;63009;52.584;5.932;2023-03-21T02:39:49;16.80;;;8.23;;
74528;SDS011;63009;52.584;5.932;2023-03-21T02:47:58;19.58;;;8.98;;
74528;SDS011;63009;52.584;5.932;2023-03-21T02:53:05;23.27;;;10.93;;
74528;SDS011;63009;52.584;5.932;2023-03-21T02:55:33;17.13;;;8.88;;
74528;SDS011;63009;52.584;5.932;2023-03-21T02:58:01;20.45;;;9.85;;
74528;SDS011;63009;52.584;5.932;2023-03-21T03:00:31;20.50;;;10.40;;
74528;SDS011;63009;52.584;5.932;2023-03-21T03:02:57;19.92;;;10.35;;
74528;SDS011;63009;52.584;5.932;2023-03-21T03:05:25;20.33;;;9.65;;
74528;SDS011;63009;52.584;5.932;2023-03-21T03:08:07;18.48;;;8.95;;
74528;SDS011;63009;52.584;5.932;2023-03-21T03:16:42;21.15;;;10.75;;
74528;SDS011;63009;52.584;5.932;2023-03-21T03:19:34;19.08;;;9.70;;
74528;SDS011;63009;52.584;5.932;2023-03-21T03:22:09;18.35;;;9.15;;
74528;SDS011;63009;52.584;5.932;2023-03-21T03:24:51;19.65;;;9.85;;
74528;SDS011;63009;52.584;5.932;2023-03-21T03:27:28;18.67;;;10.00;;
74528;SDS011;63009;52.584;5.932;2023-03-21T03:29:59;20.38;;;11.02;;
74528;SDS011;63009;52.584;5.932;2023-03-21T03:35:00;23.65;;;10.70;;
74528;SDS011;63009;52.584;5.932;2023-03-21T03:37:28;20.63;;;10.93;;
74528;SDS011;63009;52.584;5.932;2023-03-21T03:42:53;19.42;;;10.07;;
74528;SDS011;63009;52.584;5.932;2023-03-21T03:45:19;21.33;;;10.50;;
74528;SDS011;63009;52.584;5.932;2023-03-21T03:47:53;21.70;;;11.82;;
74528;SDS011;63009;52.584;5.932;2023-03-21T03:50:29;21.23;;;11.52;;
74528;SDS011;63009;52.584;5.932;2023-03-21T03:53:00;22.60;;;11.85;;
74528;SDS011;63009;52.584;5.932;2023-03-21T03:55:30;22.92;;;12.18;;
74528;SDS011;63009;52.584;5.932;2023-03-21T03:57:58;24.52;;;12.50;;
74528;SDS011;63009;52.584;5.932;2023-03-21T04:00:25;23.13;;;12.05;;
74528;SDS011;63009;52.584;5.932;2023-03-21T04:02:51;21.40;;;11.50;;
74528;SDS011;63009;52.584;5.932;2023-03-21T04:05:16;25.90;;;12.60;;
74528;SDS011;63009;52.584;5.932;2023-03-21T04:07:45;22.40;;;12.27;;
74528;SDS011;63009;52.584;5.932;2023-03-21T04:10:12;22.13;;;11.43;;
74528;SDS011;63009;52.584;5.932;2023-03-21T04:12:38;26.70;;;13.73;;
74528;SDS011;63009;52.584;5.932;2023-03-21T04:15:04;21.90;;;11.52;;
74528;SDS011;63009;52.584;5.932;2023-03-21T04:17:30;24.70;;;13.10;;
74528;SDS011;63009;52.584;5.932;2023-03-21T04:19:57;22.17;;;12.02;;
74528;SDS011;63009;52.584;5.932;2023-03-21T04:22:22;26.77;;;12.85;;
74528;SDS011;63009;52.584;5.932;2023-03-21T04:24:48;24.85;;;13.15;;
74528;SDS011;63009;52.584;5.932;2023-03-21T04:27:14;26.13;;;12.63;;
74528;SDS011;63009;52.584;5.932;2023-03-21T04:29:40;24.83;;;13.02;;
74528;SDS011;63009;52.584;5.932;2023-03-21T04:32:05;25.13;;;12.65;;
74528;SDS011;63009;52.584;5.932;2023-03-21T04:37:05;22.83;;;11.90;;
74528;SDS011;63009;52.584;5.932;2023-03-21T04:39:34;27.10;;;12.35;;
74528;SDS011;63009;52.584;5.932;2023-03-21T04:42:00;23.70;;;12.47;;
74528;SDS011;63009;52.584;5.932;2023-03-21T04:44:25;24.07;;;12.70;;
74528;SDS011;63009;52.584;5.932;2023-03-21T04:46:51;25.42;;;13.00;;
74528;SDS011;63009;52.584;5.932;2023-03-21T04:49:16;25.73;;;12.37;;
74528;SDS011;63009;52.584;5.932;2023-03-21T04:51:42;23.40;;;11.30;;
74528;SDS011;63009;52.584;5.932;2023-03-21T04:54:09;27.25;;;13.43;;
74528;SDS011;63009;52.584;5.932;2023-03-21T04:56:34;22.50;;;12.20;;
74528;SDS011;63009;52.584;5.932;2023-03-21T04:59:11;25.13;;;14.02;;
74528;SDS011;63009;52.584;5.932;2023-03-21T05:01:38;24.17;;;12.60;;
74528;SDS011;63009;52.584;5.932;2023-03-21T05:04:05;24.20;;;12.40;;
74528;SDS011;63009;52.584;5.932;2023-03-21T05:06:30;24.50;;;12.98;;
74528;SDS011;63009;52.584;5.932;2023-03-21T05:08:56;25.02;;;13.75;;
74528;SDS011;63009;52.584;5.932;2023-03-21T05:11:29;25.10;;;12.68;;
74528;SDS011;63009;52.584;5.932;2023-03-21T05:13:56;28.95;;;13.48;;
74528;SDS011;63009;52.584;5.932;2023-03-21T05:16:22;23.33;;;11.43;;
74528;SDS011;63009;52.584;5.932;2023-03-21T05:18:50;26.00;;;12.57;;
74528;SDS011;63009;52.584;5.932;2023-03-21T05:21:18;21.58;;;10.40;;
74528;SDS011;63009;52.584;5.932;2023-03-21T05:23:44;23.50;;;11.65;;
74528;SDS011;63009;52.584;5.932;2023-03-21T05:26:09;22.40;;;11.10;;
74528;SDS011;63009;52.584;5.932;2023-03-21T05:28:35;22.50;;;11.50;;
74528;SDS011;63009;52.584;5.932;2023-03-21T05:31:03;19.85;;;10.52;;
74528;SDS011;63009;52.584;5.932;2023-03-21T05:35:54;21.35;;;9.55;;
74528;SDS011;63009;52.584;5.932;2023-03-21T05:38:20;19.23;;;9.18;;
74528;SDS011;63009;52.584;5.932;2023-03-21T05:40:46;17.67;;;9.18;;
74528;SDS011;63009;52.584;5.932;2023-03-21T05:43:12;16.58;;;8.85;;
74528;SDS011;63009;52.584;5.932;2023-03-21T05:45:37;18.57;;;8.50;;
74528;SDS011;63009;52.584;5.932;2023-03-21T05:48:02;17.55;;;9.15;;
74528;SDS011;63009;52.584;5.932;2023-03-21T05:50:27;17.63;;;8.63;;
74528;SDS011;63009;52.584;5.932;2023-03-21T05:52:53;15.05;;;7.70;;
74528;SDS011;63009;52.584;5.932;2023-03-21T05:55:18;14.80;;;7.70;;
74528;SDS011;63009;52.584;5.932;2023-03-21T05:57:44;17.58;;;8.50;;
74528;SDS011;63009;52.584;5.932;2023-03-21T06:00:09;16.52;;;8.32;;
74528;SDS011;63009;52.584;5.932;2023-03-21T06:02:36;19.25;;;9.45;;
74528;SDS011;63009;52.584;5.932;2023-03-21T06:05:01;19.40;;;9.82;;
74528;SDS011;63009;52.584;5.932;2023-03-21T06:07:27;17.25;;;9.23;;
74528;SDS011;63009;52.584;5.932;2023-03-21T06:09:52;20.05;;;10.05;;
74528;SDS011;63009;52.584;5.932;2023-03-21T06:12:18;20.53;;;11.30;;
74528;SDS011;63009;52.584;5.932;2023-03-21T06:14:43;18.63;;;10.20;;
74528;SDS011;63009;52.584;5.932;2023-03-21T06:17:08;23.13;;;11.50;;
74528;SDS011;63009;52.584;5.932;2023-03-21T06:19:33;25.63;;;13.23;;
74528;SDS011;63009;52.584;5.932;2023-03-21T06:21:59;26.75;;;13.60;;
74528;SDS011;63009;52.584;5.932;2023-03-21T06:24:25;25.10;;;14.23;;
74528;SDS011;63009;52.584;5.932;2023-03-21T06:26:50;25.45;;;13.88;;
74528;SDS011;63009;52.584;5.932;2023-03-21T06:29:16;27.45;;;14.43;;
74528;SDS011;63009;52.584;5.932;2023-03-21T06:31:41;28.33;;;14.70;;
74528;SDS011;63009;52.584;5.932;2023-03-21T06:34:06;27.15;;;13.43;;
74528;SDS011;63009;52.584;5.932;2023-03-21T06:36:31;28.13;;;14.95;;
74528;SDS011;63009;52.584;5.932;2023-03-21T06:38:57;28.03;;;14.67;;
74528;SDS011;63009;52.584;5.932;2023-03-21T06:41:22;30.20;;;15.48;;
74528;SDS011;63009;52.584;5.932;2023-03-21T06:43:48;27.58;;;14.38;;
74528;SDS011;63009;52.584;5.932;2023-03-21T06:46:13;25.88;;;13.77;;
74528;SDS011;63009;52.584;5.932;2023-03-21T06:48:38;29.20;;;14.98;;
74528;SDS011;63009;52.584;5.932;2023-03-21T06:51:08;27.55;;;14.95;;
74528;SDS011;63009;52.584;5.932;2023-03-21T06:53:35;28.73;;;15.43;;
74528;SDS011;63009;52.584;5.932;2023-03-21T06:56:00;26.13;;;13.43;;
74528;SDS011;63009;52.584;5.932;2023-03-21T06:58:25;28.17;;;14.77;;
74528;SDS011;63009;52.584;5.932;2023-03-21T07:00:51;28.33;;;14.15;;
74528;SDS011;63009;52.584;5.932;2023-03-21T07:03:16;28.13;;;13.90;;
74528;SDS011;63009;52.584;5.932;2023-03-21T07:05:43;23.73;;;12.95;;
74528;SDS011;63009;52.584;5.932;2023-03-21T07:08:08;28.98;;;14.48;;
74528;SDS011;63009;52.584;5.932;2023-03-21T07:10:39;28.13;;;15.50;;
74528;SDS011;63009;52.584;5.932;2023-03-21T07:13:06;27.13;;;15.13;;
74528;SDS011;63009;52.584;5.932;2023-03-21T07:15:31;29.98;;;13.57;;
74528;SDS011;63009;52.584;5.932;2023-03-21T07:17:58;26.25;;;13.32;;
74528;SDS011;63009;52.584;5.932;2023-03-21T07:20:23;29.23;;;15.13;;
74528;SDS011;63009;52.584;5.932;2023-03-21T07:22:50;28.02;;;13.88;;
74528;SDS011;63009;52.584;5.932;2023-03-21T07:25:16;28.75;;;13.63;;
74528;SDS011;63009;52.584;5.932;2023-03-21T07:27:41;27.03;;;12.30;;
74528;SDS011;63009;52.584;5.932;2023-03-21T07:30:07;27.15;;;13.68;;
74528;SDS011;63009;52.584;5.932;2023-03-21T07:32:34;27.35;;;13.23;;
74528;SDS011;63009;52.584;5.932;2023-03-21T07:35:01;28.30;;;13.93;;
74528;SDS011;63009;52.584;5.932;2023-03-21T07:37:27;23.80;;;12.45;;
74528;SDS011;63009;52.584;5.932;2023-03-21T07:39:52;27.40;;;13.82;;
74528;SDS011;63009;52.584;5.932;2023-03-21T07:42:18;24.33;;;12.53;;
74528;SDS011;63009;52.584;5.932;2023-03-21T07:44:44;26.13;;;13.52;;
74528;SDS011;63009;52.584;5.932;2023-03-21T07:47:09;31.20;;;12.60;;
74528;SDS011;63009;52.584;5.932;2023-03-21T07:49:35;25.90;;;13.07;;
74528;SDS011;63009;52.584;5.932;2023-03-21T07:52:02;24.55;;;11.70;;
74528;SDS011;63009;52.584;5.932;2023-03-21T07:54:28;23.42;;;12.18;;
74528;SDS011;63009;52.584;5.932;2023-03-21T07:56:54;23.17;;;10.90;;
74528;SDS011;63009;52.584;5.932;2023-03-21T07:59:20;27.23;;;11.20;;
74528;SDS011;63009;52.584;5.932;2023-03-21T08:01:46;20.10;;;10.50;;
74528;SDS011;63009;52.584;5.932;2023-03-21T08:04:11;23.57;;;10.73;;
74528;SDS011;63009;52.584;5.932;2023-03-21T08:06:36;21.50;;;10.30;;
74528;SDS011;63009;52.584;5.932;2023-03-21T08:09:02;22.37;;;10.47;;
74528;SDS011;63009;52.584;5.932;2023-03-21T08:11:27;23.67;;;11.65;;
74528;SDS011;63009;52.584;5.932;2023-03-21T08:13:55;26.23;;;11.77;;
74528;SDS011;63009;52.584;5.932;2023-03-21T08:16:24;24.63;;;11.20;;
74528;SDS011;63009;52.584;5.932;2023-03-21T08:18:49;19.50;;;9.27;;
74528;SDS011;63009;52.584;5.932;2023-03-21T08:21:15;18.70;;;9.65;;
74528;SDS011;63009;52.584;5.932;2023-03-21T08:23:40;20.77;;;9.77;;
74528;SDS011;63009;52.584;5.932;2023-03-21T08:26:05;19.67;;;9.93;;
74528;SDS011;63009;52.584;5.932;2023-03-21T08:28:31;17.63;;;9.15;;
74528;SDS011;63009;52.584;5.932;2023-03-21T08:30:57;19.02;;;9.23;;
74528;SDS011;63009;52.584;5.932;2023-03-21T08:33:22;20.13;;;9.10;;
74528;SDS011;63009;52.584;5.932;2023-03-21T08:35:48;19.10;;;9.38;;
74528;SDS011;63009;52.584;5.932;2023-03-21T08:38:14;20.52;;;10.13;;
74528;SDS011;63009;52.584;5.932;2023-03-21T08:40:39;21.65;;;10.20;;
74528;SDS011;63009;52.584;5.932;2023-03-21T08:43:05;19.23;;;9.07;;
74528;SDS011;63009;52.584;5.932;2023-03-21T08:45:30;21.30;;;10.65;;
74528;SDS011;63009;52.584;5.932;2023-03-21T08:47:56;21.37;;;8.93;;
74528;SDS011;63009;52.584;5.932;2023-03-21T08:50:22;21.77;;;10.27;;
74528;SDS011;63009;52.584;5.932;2023-03-21T08:52:50;20.65;;;9.27;;
74528;SDS011;63009;52.584;5.932;2023-03-21T08:55:15;25.30;;;10.07;;
74528;SDS011;63009;52.584;5.932;2023-03-21T08:57:42;19.88;;;10.13;;
74528;SDS011;63009;52.584;5.932;2023-03-21T09:00:09;19.02;;;8.77;;
74528;SDS011;63009;52.584;5.932;2023-03-21T09:02:38;18.85;;;9.43;;
74528;SDS011;63009;52.584;5.932;2023-03-21T09:05:04;23.08;;;10.27;;
74528;SDS011;63009;52.584;5.932;2023-03-21T09:07:31;18.55;;;8.63;;
74528;SDS011;63009;52.584;5.932;2023-03-21T09:09:58;18.73;;;10.40;;
74528;SDS011;63009;52.584;5.932;2023-03-21T09:12:24;17.83;;;8.45;;
74528;SDS011;63009;52.584;5.932;2023-03-21T09:14:49;22.17;;;9.38;;
74528;SDS011;63009;52.584;5.932;2023-03-21T09:17:15;23.37;;;8.97;;
74528;SDS011;63009;52.584;5.932;2023-03-21T09:19:40;21.13;;;10.43;;
74528;SDS011;63009;52.584;5.932;2023-03-21T09:22:06;22.70;;;9.73;;
74528;SDS011;63009;52.584;5.932;2023-03-21T09:24:35;20.88;;;10.02;;
74528;SDS011;63009;52.584;5.932;2023-03-21T09:27:00;20.05;;;9.80;;
74528;SDS011;63009;52.584;5.932;2023-03-21T09:29:25;22.17;;;9.75;;
74528;SDS011;63009;52.584;5.932;2023-03-21T09:31:51;19.77;;;8.10;;
74528;SDS011;63009;52.584;5.932;2023-03-21T09:34:18;19.33;;;8.80;;
74528;SDS011;63009;52.584;5.932;2023-03-21T09:36:43;16.67;;;7.37;;
74528;SDS011;63009;52.584;5.932;2023-03-21T09:39:12;18.95;;;9.18;;
74528;SDS011;63009;52.584;5.932;2023-03-21T09:42:03;19.20;;;8.23;;
74528;SDS011;63009;52.584;5.932;2023-03-21T09:47:25;17.67;;;8.20;;
74528;SDS011;63009;52.584;5.932;2023-03-21T09:50:00;22.35;;;9.90;;
74528;SDS011;63009;52.584;5.932;2023-03-21T09:54:56;18.50;;;7.65;;
74528;SDS011;63009;52.584;5.932;2023-03-21T09:57:27;19.25;;;9.32;;
74528;SDS011;63009;52.584;5.932;2023-03-21T09:59:56;17.88;;;9.27;;
74528;SDS011;63009;52.584;5.932;2023-03-21T10:05:25;18.90;;;8.95;;
74528;SDS011;63009;52.584;5.932;2023-03-21T10:08:12;17.85;;;9.43;;
74528;SDS011;63009;52.584;5.932;2023-03-21T10:11:06;17.08;;;9.57;;
74528;SDS011;63009;52.584;5.932;2023-03-21T10:13:42;22.40;;;9.88;;
74528;SDS011;63009;52.584;5.932;2023-03-21T10:16:14;21.63;;;9.88;;
74528;SDS011;63009;52.584;5.932;2023-03-21T10:18:43;18.88;;;9.73;;
74528;SDS011;63009;52.584;5.932;2023-03-21T10:21:11;21.77;;;9.35;;
74528;SDS011;63009;52.584;5.932;2023-03-21T10:23:43;17.10;;;8.77;;
74528;SDS011;63009;52.584;5.932;2023-03-21T10:26:09;17.25;;;8.88;;
74528;SDS011;63009;52.584;5.932;2023-03-21T10:28:37;17.83;;;9.75;;
74528;SDS011;63009;52.584;5.932;2023-03-21T10:31:06;17.20;;;7.88;;
74528;SDS011;63009;52.584;5.932;2023-03-21T10:33:41;16.85;;;7.97;;
74528;SDS011;63009;52.584;5.932;2023-03-21T10:38:37;13.85;;;6.45;;
74528;SDS011;63009;52.584;5.932;2023-03-21T10:41:08;13.70;;;6.32;;
74528;SDS011;63009;52.584;5.932;2023-03-21T10:43:35;14.55;;;6.22;;
74528;SDS011;63009;52.584;5.932;2023-03-21T10:46:35;13.60;;;5.72;;
74528;SDS011;63009;52.584;5.932;2023-03-21T10:48:53;13.93;;;5.90;;
74528;SDS011;63009;52.584;5.932;2023-03-21T10:51:20;13.93;;;6.15;;
74528;SDS011;63009;52.584;5.932;2023-03-21T10:53:54;15.23;;;6.18;;
74528;SDS011;63009;52.584;5.932;2023-03-21T10:56:22;11.65;;;5.40;;
74528;SDS011;63009;52.584;5.932;2023-03-21T10:58:52;12.48;;;5.43;;
74528;SDS011;63009;52.584;5.932;2023-03-21T11:01:24;13.50;;;6.60;;
74528;SDS011;63009;52.584;5.932;2023-03-21T11:03:55;12.73;;;5.60;;
74528;SDS011;63009;52.584;5.932;2023-03-21T11:06:26;13.57;;;5.45;;
74528;SDS011;63009;52.584;5.932;2023-03-21T11:08:54;15.00;;;6.13;;
74528;SDS011;63009;52.584;5.932;2023-03-21T11:11:24;12.02;;;4.75;;
74528;SDS011;63009;52.584;5.932;2023-03-21T11:13:55;14.70;;;5.57;;
74528;SDS011;63009;52.584;5.932;2023-03-21T11:16:24;11.70;;;5.70;;
74528;SDS011;63009;52.584;5.932;2023-03-21T11:19:12;15.15;;;6.10;;
74528;SDS011;63009;52.584;5.932;2023-03-21T11:21:50;12.30;;;5.10;;
74528;SDS011;63009;52.584;5.932;2023-03-21T11:24:16;10.52;;;5.03;;
74528;SDS011;63009;52.584;5.932;2023-03-21T11:26:44;13.05;;;6.20;;
74528;SDS011;63009;52.584;5.932;2023-03-21T11:32:08;13.52;;;5.38;;
74528;SDS011;63009;52.584;5.932;2023-03-21T11:34:46;13.68;;;4.63;;
74528;SDS011;63009;52.584;5.932;2023-03-21T11:42:56;12.65;;;5.53;;
74528;SDS011;63009;52.584;5.932;2023-03-21T11:45:24;10.82;;;5.95;;
74528;SDS011;63009;52.584;5.932;2023-03-21T11:47:55;11.30;;;5.30;;
74528;SDS011;63009;52.584;5.932;2023-03-21T11:53:05;13.82;;;5.57;;
74528;SDS011;63009;52.584;5.932;2023-03-21T11:55:56;14.43;;;6.13;;
74528;SDS011;63009;52.584;5.932;2023-03-21T12:01:12;12.80;;;5.70;;
74528;SDS011;63009;52.584;5.932;2023-03-21T12:06:37;14.02;;;5.93;;
74528;SDS011;63009;52.584;5.932;2023-03-21T12:11:36;14.13;;;6.40;;
74528;SDS011;63009;52.584;5.932;2023-03-21T12:22:16;14.02;;;6.60;;
74528;SDS011;63009;52.584;5.932;2023-03-21T12:24:55;15.20;;;5.80;;
74528;SDS011;63009;52.584;5.932;2023-03-21T12:30:57;13.38;;;6.63;;
74528;SDS011;63009;52.584;5.932;2023-03-21T12:33:27;15.15;;;6.53;;
74528;SDS011;63009;52.584;5.932;2023-03-21T12:36:12;11.95;;;6.00;;
74528;SDS011;63009;52.584;5.932;2023-03-21T12:39:03;15.55;;;6.50;;
74528;SDS011;63009;52.584;5.932;2023-03-21T12:44:49;14.27;;;6.50;;
74528;SDS011;63009;52.584;5.932;2023-03-21T12:47:22;14.55;;;6.30;;
74528;SDS011;63009;52.584;5.932;2023-03-21T12:49:50;13.57;;;7.05;;
74528;SDS011;63009;52.584;5.932;2023-03-21T12:52:41;15.55;;;7.47;;
74528;SDS011;63009;52.584;5.932;2023-03-21T12:55:21;12.02;;;5.72;;
74528;SDS011;63009;52.584;5.932;2023-03-21T12:57:54;14.75;;;6.70;;
74528;SDS011;63009;52.584;5.932;2023-03-21T13:03:11;13.10;;;6.30;;
74528;SDS011;63009;52.584;5.932;2023-03-21T13:05:55;14.40;;;5.95;;
74528;SDS011;63009;52.584;5.932;2023-03-21T13:08:27;13.70;;;6.97;;
74528;SDS011;63009;52.584;5.932;2023-03-21T13:10:57;14.38;;;6.07;;
74528;SDS011;63009;52.584;5.932;2023-03-21T13:13:30;16.77;;;6.25;;
74528;SDS011;63009;52.584;5.932;2023-03-21T13:23:57;15.25;;;6.32;;
74528;SDS011;63009;52.584;5.932;2023-03-21T13:26:32;12.77;;;5.43;;
74528;SDS011;63009;52.584;5.932;2023-03-21T13:29:01;14.00;;;7.03;;
74528;SDS011;63009;52.584;5.932;2023-03-21T13:31:47;12.57;;;6.47;;
74528;SDS011;63009;52.584;5.932;2023-03-21T13:34:13;14.95;;;6.68;;
74528;SDS011;63009;52.584;5.932;2023-03-21T13:36:38;14.63;;;6.45;;
74528;SDS011;63009;52.584;5.932;2023-03-21T13:39:06;12.32;;;5.80;;
74528;SDS011;63009;52.584;5.932;2023-03-21T13:41:42;15.38;;;6.65;;
74528;SDS011;63009;52.584;5.932;2023-03-21T13:46:54;13.80;;;6.40;;
74528;SDS011;63009;52.584;5.932;2023-03-21T13:49:26;12.25;;;7.20;;
74528;SDS011;63009;52.584;5.932;2023-03-21T13:51:54;13.38;;;6.32;;
74528;SDS011;63009;52.584;5.932;2023-03-21T13:56:55;14.82;;;7.53;;
74528;SDS011;63009;52.584;5.932;2023-03-21T14:01:59;13.23;;;7.45;;
74528;SDS011;63009;52.584;5.932;2023-03-21T14:04:46;15.35;;;7.43;;
74528;SDS011;63009;52.584;5.932;2023-03-21T14:07:17;12.52;;;7.47;;
74528;SDS011;63009;52.584;5.932;2023-03-21T14:09:48;17.52;;;7.90;;
74528;SDS011;63009;52.584;5.932;2023-03-21T14:12:17;14.85;;;7.15;;
74528;SDS011;63009;52.584;5.932;2023-03-21T14:14:51;14.10;;;7.40;;
74528;SDS011;63009;52.584;5.932;2023-03-21T14:17:23;14.30;;;7.85;;
74528;SDS011;63009;52.584;5.932;2023-03-21T14:20:07;14.07;;;7.55;;
74528;SDS011;63009;52.584;5.932;2023-03-21T14:22:38;16.85;;;7.75;;
74528;SDS011;63009;52.584;5.932;2023-03-21T14:25:05;13.95;;;7.53;;
74528;SDS011;63009;52.584;5.932;2023-03-21T14:27:41;11.38;;;6.75;;
74528;SDS011;63009;52.584;5.932;2023-03-21T14:30:19;14.05;;;7.13;;
74528;SDS011;63009;52.584;5.932;2023-03-21T14:32:48;12.93;;;7.82;;
74528;SDS011;63009;52.584;5.932;2023-03-21T14:35:13;15.75;;;7.55;;
74528;SDS011;63009;52.584;5.932;2023-03-21T14:37:40;14.18;;;7.35;;
74528;SDS011;63009;52.584;5.932;2023-03-21T14:40:16;15.50;;;7.43;;
74528;SDS011;63009;52.584;5.932;2023-03-21T14:42:49;12.98;;;7.32;;
74528;SDS011;63009;52.584;5.932;2023-03-21T14:45:22;16.25;;;7.15;;
74528;SDS011;63009;52.584;5.932;2023-03-21T14:48:06;13.57;;;7.18;;
74528;SDS011;63009;52.584;5.932;2023-03-21T14:50:49;15.32;;;7.35;;
74528;SDS011;63009;52.584;5.932;2023-03-21T14:53:20;15.10;;;7.72;;
74528;SDS011;63009;52.584;5.932;2023-03-21T14:55:57;13.43;;;6.82;;
74528;SDS011;63009;52.584;5.932;2023-03-21T14:58:24;11.40;;;6.63;;
74528;SDS011;63009;52.584;5.932;2023-03-21T15:00:52;12.68;;;7.13;;
74528;SDS011;63009;52.584;5.932;2023-03-21T15:03:20;13.18;;;6.93;;
74528;SDS011;63009;52.584;5.932;2023-03-21T15:05:47;14.18;;;6.53;;
74528;SDS011;63009;52.584;5.932;2023-03-21T15:08:14;14.18;;;7.30;;
74528;SDS011;63009;52.584;5.932;2023-03-21T15:10:59;13.40;;;7.00;;
74528;SDS011;63009;52.584;5.932;2023-03-21T15:13:26;12.00;;;6.20;;
74528;SDS011;63009;52.584;5.932;2023-03-21T15:15:54;13.43;;;7.28;;
74528;SDS011;63009;52.584;5.932;2023-03-21T15:18:24;12.07;;;6.70;;
74528;SDS011;63009;52.584;5.932;2023-03-21T15:20:51;16.23;;;6.88;;
74528;SDS011;63009;52.584;5.932;2023-03-21T15:23:25;16.85;;;6.70;;
74528;SDS011;63009;52.584;5.932;2023-03-21T15:25:55;14.38;;;7.35;;
74528;SDS011;63009;52.584;5.932;2023-03-21T15:28:20;14.68;;;7.60;;
74528;SDS011;63009;52.584;5.932;2023-03-21T15:30:46;13.52;;;6.80;;
74528;SDS011;63009;52.584;5.932;2023-03-21T15:33:14;12.13;;;6.45;;
74528;SDS011;63009;52.584;5.932;2023-03-21T15:35:42;12.82;;;6.80;;
74528;SDS011;63009;52.584;5.932;2023-03-21T15:38:24;12.52;;;6.57;;
74528;SDS011;63009;52.584;5.932;2023-03-21T15:41:11;12.90;;;6.65;;
74528;SDS011;63009;52.584;5.932;2023-03-21T15:43:47;13.57;;;6.90;;
74528;SDS011;63009;52.584;5.932;2023-03-21T15:46:40;12.57;;;6.95;;
74528;SDS011;63009;52.584;5.932;2023-03-21T15:54:04;13.27;;;7.00;;
74528;SDS011;63009;52.584;5.932;2023-03-21T15:56:33;13.27;;;6.63;;
74528;SDS011;63009;52.584;5.932;2023-03-21T15:59:00;16.23;;;7.35;;
74528;SDS011;63009;52.584;5.932;2023-03-21T16:04:01;16.23;;;6.82;;
74528;SDS011;63009;52.584;5.932;2023-03-21T16:06:32;11.98;;;6.75;;
74528;SDS011;63009;52.584;5.932;2023-03-21T16:09:11;13.57;;;7.25;;
74528;SDS011;63009;52.584;5.932;2023-03-21T16:11:40;13.55;;;7.60;;
74528;SDS011;63009;52.584;5.932;2023-03-21T16:14:07;14.38;;;7.22;;
74528;SDS011;63009;52.584;5.932;2023-03-21T16:16:34;14.68;;;7.30;;
74528;SDS011;63009;52.584;5.932;2023-03-21T16:19:00;15.20;;;7.72;;
74528;SDS011;63009;52.584;5.932;2023-03-21T16:21:28;14.88;;;7.53;;